メインページ
METAR-TAF:

METAR-TAF

空港 :

ザグレブ, クロアチア

ザグレブ国際空港

緯度: 45-44N, 経度: 016-04E, 海抜: 106m

現時点の気象観測

当レポートは8分前の10:30(UTC)に作成
変向風 1kt
気温 3°C
湿度 100%
気圧 1014 hPa
視程: 4000m
高度300ftの曇り

METAR: LDZA 191030Z VRB01KT 4000 BR OVC003 03/03 Q1014 BECMG 6000 NSW BKN010

時間: 11:38 (10:38 UTC)

予報

当レポートは1時間32分前の09:06(UTC)に作成
予報は19日の 09時(UTC)から 20日の 06時(UTC)まで有効
変向風 2kt
視程: 4000m
高度200ftの曇り
19日の 09時(UTC)から 19日の 11時(UTC)まで徐々に
視程: 6000m
高度500ftの曇り
19日の 11時(UTC)から 19日の 13時(UTC)まで徐々に
高度1000ftの雲は散在している
19日の 17時(UTC)から 19日の 19時(UTC)まで徐々に
視程: 1500m
確率 40%
19日の 19時(UTC)から 20日の 05時(UTC)まで
変向風 2kt
視程: 0300m

TAF: LDZA 190906Z 1909/2006 VRB02KT 4000 BR OVC002 TX05/1913Z TNM01/2002Z BECMG 1909/1911 6000 NSW OVC005 BECMG 1911/1913 SCT010 BECMG 1917/1919 1500 BR PROB40 1919/2005 VRB02KT 0300 FG

4,000以上の空港の気象観測と天気予報(METAR報とTAF報)

利用可能な観測所は地図上に黄色い丸と赤い丸で示す。

丸の上にカーソルを重ねると観測所名を参照できる。

次にクリックすると気象観測と天気予報を参照できる。

マップの切り替え:黒色「×」印の緑ボタンをクリックして拡大、「-」印の緑ボタンをクリックして縮小、緑色の三角印をクリックして隣りの地図に切り替え


METAR-TAF: